Time;durP1;ratioP1;P1;durP2;ratioP2;P2;SDS_P1;SDS_P2;PMS_P1;PMS_P2;Temp;Humidity;BMP_temperature;BMP_pressure;BME280_temperature;BME280_humidity;BME280_pressure;Samples;Min_cycle;Max_cycle;Signal;HPM_P1;HPM_P2
2023/05/24 00:00:37;;;;;;;24.13;18.27;;;;;;;;;;5047516;28;20228;-80
2023/05/24 00:03:05;;;;;;;12.80;11.50;;;;;;;;;;5047571;28;20205;-80
2023/05/24 00:05:32;;;;;;;6.47;5.80;;;;;;;;;;5047892;28;20345;-79
2023/05/24 00:07:59;;;;;;;5.40;4.90;;;;;;;;;;5046752;28;20194;-79
2023/05/24 00:10:26;;;;;;;4.40;3.67;;;;;;;;;;5047534;28;20208;-80
2023/05/24 00:12:54;;;;;;;4.40;4.00;;;;;;;;;;5046943;28;20201;-79
2023/05/24 00:15:21;;;;;;;4.60;3.73;;;;;;;;;;5047767;28;20205;-79
2023/05/24 00:17:47;;;;;;;6.40;4.67;;;;;;;;;;5046619;28;20214;-80
2023/05/24 00:20:14;;;;;;;5.20;4.80;;;;;;;;;;5047715;28;20198;-79
2023/05/24 00:22:41;;;;;;;7.30;4.50;;;;;;;;;;5033339;28;20210;-79
2023/05/24 00:25:08;;;;;;;4.57;4.13;;;;;;;;;;5047256;28;20222;-79
2023/05/24 00:27:36;;;;;;;5.50;4.00;;;;;;;;;;5046877;28;20236;-79
2023/05/24 00:30:05;;;;;;;5.33;4.30;;;;;;;;;;5046705;28;20218;-79
2023/05/24 00:32:31;;;;;;;5.20;4.33;;;;;;;;;;5047031;28;20205;-79
2023/05/24 00:34:58;;;;;;;4.50;3.80;;;;;;;;;;5047369;28;20254;-80
2023/05/24 00:37:25;;;;;;;4.67;4.23;;;;;;;;;;5046780;28;20210;-80
2023/05/24 00:39:51;;;;;;;4.80;4.37;;;;;;;;;;5047780;28;20204;-79
2023/05/24 00:42:18;;;;;;;4.50;4.10;;;;;;;;;;5046853;28;20700;-79
2023/05/24 00:44:45;;;;;;;4.57;4.17;;;;;;;;;;5036501;28;20223;-79
2023/05/24 00:47:13;;;;;;;4.83;4.40;;;;;;;;;;5047238;28;20222;-79
2023/05/24 00:49:40;;;;;;;4.80;4.30;;;;;;;;;;5050812;28;20701;-80
2023/05/24 00:52:07;;;;;;;8.83;4.53;;;;;;;;;;5050633;28;20207;-80
2023/05/24 00:54:34;;;;;;;5.93;4.40;;;;;;;;;;5050992;28;20205;-79
2023/05/24 00:57:01;;;;;;;6.43;3.97;;;;;;;;;;5049496;28;20209;-79
2023/05/24 00:59:28;;;;;;;5.90;5.37;;;;;;;;;;5050941;28;20198;-79
2023/05/24 01:01:55;;;;;;;8.23;7.37;;;;;;;;;;5049639;28;20748;-79
2023/05/24 01:04:23;;;;;;;8.23;6.10;;;;;;;;;;5050444;28;20204;-79
2023/05/24 01:07:02;;;;;;;6.53;5.77;;;;;;;;;;5050329;28;20230;-79
2023/05/24 01:09:34;;;;;;;6.53;4.17;;;;;;;;;;5050174;28;20198;-80
2023/05/24 01:12:11;;;;;;;5.17;4.43;;;;;;;;;;5050039;28;20207;-80
2023/05/24 01:14:45;;;;;;;5.47;4.53;;;;;;;;;;5050014;28;20209;-79
2023/05/24 01:17:14;;;;;;;10.47;5.50;;;;;;;;;;5050436;28;20214;-79
2023/05/24 01:19:58;;;;;;;8.93;8.03;;;;;;;;;;5050285;28;20233;-80
2023/05/24 01:22:36;;;;;;;6.27;5.67;;;;;;;;;;5049828;28;20282;-80
2023/05/24 01:25:04;;;;;;;6.67;4.33;;;;;;;;;;5049733;28;20225;-80
2023/05/24 01:27:34;;;;;;;4.50;4.10;;;;;;;;;;5050194;28;20718;-80
2023/05/24 01:30:02;;;;;;;4.47;4.07;;;;;;;;;;5050090;28;20198;-80
2023/05/24 01:32:29;;;;;;;4.77;4.37;;;;;;;;;;5049867;28;20199;-80
2023/05/24 01:34:55;;;;;;;4.60;4.20;;;;;;;;;;5050085;28;20198;-79
2023/05/24 01:37:22;;;;;;;7.83;4.10;;;;;;;;;;5049803;28;20202;-80
2023/05/24 01:39:49;;;;;;;4.53;4.20;;;;;;;;;;5038776;28;20709;-80
2023/05/24 01:42:24;;;;;;;6.53;4.07;;;;;;;;;;5047663;28;20205;-80
2023/05/24 01:44:57;;;;;;;5.27;4.77;;;;;;;;;;5049755;28;20219;-80
2023/05/24 01:47:30;;;;;;;4.57;4.00;;;;;;;;;;5049412;28;20237;-80
2023/05/24 01:50:00;;;;;;;5.57;4.10;;;;;;;;;;5049951;28;20210;-80
2023/05/24 01:52:29;;;;;;;6.37;4.73;;;;;;;;;;5049650;28;20251;-80
2023/05/24 01:54:57;;;;;;;4.43;4.03;;;;;;;;;;5046150;28;20202;-80
2023/05/24 01:57:25;;;;;;;4.07;3.77;;;;;;;;;;5026116;28;20623;-80
2023/05/24 01:59:54;;;;;;;4.67;4.27;;;;;;;;;;5049761;28;20262;-79
2023/05/24 02:02:20;;;;;;;4.83;4.37;;;;;;;;;;5049423;28;20732;-79
2023/05/24 02:04:47;;;;;;;4.97;4.53;;;;;;;;;;5049547;28;20214;-80
2023/05/24 02:07:14;;;;;;;6.20;4.20;;;;;;;;;;5049000;28;20202;-80
2023/05/24 02:09:41;;;;;;;4.77;4.33;;;;;;;;;;5049289;28;20747;-80
2023/05/24 02:12:09;;;;;;;5.90;3.73;;;;;;;;;;5049480;28;20233;-80
2023/05/24 02:14:36;;;;;;;5.03;4.53;;;;;;;;;;5048962;28;20641;-80
2023/05/24 02:17:05;;;;;;;7.97;4.27;;;;;;;;;;5049069;28;20213;-80
2023/05/24 02:19:33;;;;;;;6.43;4.30;;;;;;;;;;5049329;28;20212;-80
2023/05/24 02:22:00;;;;;;;4.67;4.23;;;;;;;;;;5049358;28;20202;-80
2023/05/24 02:24:26;;;;;;;5.00;4.33;;;;;;;;;;5049547;28;20201;-79
2023/05/24 02:26:54;;;;;;;6.97;4.73;;;;;;;;;;5048372;28;20715;-79
2023/05/24 02:29:21;;;;;;;5.40;4.33;;;;;;;;;;5049215;28;20198;-79
2023/05/24 02:31:53;;;;;;;4.70;4.20;;;;;;;;;;5048569;28;20212;-79
2023/05/24 02:34:22;;;;;;;5.20;4.70;;;;;;;;;;5048755;28;20198;-80
2023/05/24 02:36:48;;;;;;;9.33;6.20;;;;;;;;;;5048578;28;20270;-80
2023/05/24 02:39:15;;;;;;;21.33;7.03;;;;;;;;;;5048735;28;20205;-80
2023/05/24 02:41:42;;;;;;;9.83;5.93;;;;;;;;;;5049312;28;20209;-80
2023/05/24 02:44:09;;;;;;;4.50;4.20;;;;;;;;;;5048832;28;20210;-80
2023/05/24 02:46:36;;;;;;;5.00;4.50;;;;;;;;;;5048955;28;20332;-80
2023/05/24 02:49:03;;;;;;;4.67;4.23;;;;;;;;;;5022187;28;20198;-80
2023/05/24 02:51:32;;;;;;;7.37;5.27;;;;;;;;;;5048747;28;20209;-80
2023/05/24 02:53:59;;;;;;;5.53;5.03;;;;;;;;;;5048821;28;20292;-80
2023/05/24 02:56:26;;;;;;;5.03;4.53;;;;;;;;;;5048254;28;20206;-80
2023/05/24 02:58:54;;;;;;;5.30;4.80;;;;;;;;;;5049120;28;20205;-80
2023/05/24 03:01:21;;;;;;;7.57;5.33;;;;;;;;;;5047767;28;20748;-80
2023/05/24 03:03:48;;;;;;;5.27;4.70;;;;;;;;;;5049028;28;20444;-80
2023/05/24 03:06:15;;;;;;;5.57;5.07;;;;;;;;;;5048266;28;20297;-80
2023/05/24 03:08:43;;;;;;;6.93;5.13;;;;;;;;;;5047984;28;20241;-79
2023/05/24 03:11:09;;;;;;;4.83;4.33;;;;;;;;;;5048498;28;20680;-80
2023/05/24 03:13:36;;;;;;;5.10;4.60;;;;;;;;;;5045063;28;20250;-80
2023/05/24 03:16:03;;;;;;;4.87;4.17;;;;;;;;;;5028027;28;20308;-81
2023/05/24 03:18:30;;;;;;;5.17;4.30;;;;;;;;;;5048516;28;20201;-80
2023/05/24 03:20:57;;;;;;;4.67;4.27;;;;;;;;;;5048242;28;20205;-80
2023/05/24 03:23:23;;;;;;;5.20;4.80;;;;;;;;;;5048608;28;20210;-80
2023/05/24 03:25:52;;;;;;;4.97;4.43;;;;;;;;;;5019874;28;20299;-80
2023/05/24 03:28:21;;;;;;;4.83;4.43;;;;;;;;;;5038266;28;20250;-80
2023/05/24 03:30:47;;;;;;;4.83;4.33;;;;;;;;;;5047851;28;20209;-80
2023/05/24 03:33:14;;;;;;;4.50;4.10;;;;;;;;;;5047889;28;20201;-80
2023/05/24 03:35:42;;;;;;;5.43;4.47;;;;;;;;;;5048223;28;20703;-80
2023/05/24 03:38:10;;;;;;;4.63;4.23;;;;;;;;;;5047639;28;20577;-80
2023/05/24 03:40:37;;;;;;;5.40;4.90;;;;;;;;;;5047505;28;20689;-80
2023/05/24 03:43:05;;;;;;;4.93;4.53;;;;;;;;;;5047655;28;20630;-80
2023/05/24 03:45:32;;;;;;;5.13;4.63;;;;;;;;;;5047902;28;20246;-80
2023/05/24 03:47:58;;;;;;;6.03;5.03;;;;;;;;;;5048420;28;20712;-80
2023/05/24 03:50:25;;;;;;;4.97;4.50;;;;;;;;;;5048191;28;20198;-80
2023/05/24 03:52:52;;;;;;;4.73;4.33;;;;;;;;;;5048172;28;20638;-80
2023/05/24 03:55:19;;;;;;;5.40;4.90;;;;;;;;;;5048366;28;20209;-80
2023/05/24 03:57:45;;;;;;;4.73;4.33;;;;;;;;;;5047844;28;20212;-81
2023/05/24 04:00:14;;;;;;;5.30;4.40;;;;;;;;;;5044632;28;20253;-79
2023/05/24 04:02:41;;;;;;;5.17;4.50;;;;;;;;;;5044070;28;20606;-79
2023/05/24 04:05:09;;;;;;;5.23;4.47;;;;;;;;;;5048175;28;20258;-79
2023/05/24 04:07:36;;;;;;;5.47;4.97;;;;;;;;;;5048122;28;20225;-79
2023/05/24 04:10:03;;;;;;;6.97;6.00;;;;;;;;;;5048157;28;20206;-80
2023/05/24 04:12:31;;;;;;;6.47;5.70;;;;;;;;;;5022105;28;20740;-80
2023/05/24 04:14:58;;;;;;;4.97;4.57;;;;;;;;;;5047405;28;20206;-80
2023/05/24 04:17:28;;;;;;;5.63;4.20;;;;;;;;;;5047842;28;20262;-79
2023/05/24 04:19:55;;;;;;;4.60;4.23;;;;;;;;;;5022653;28;20229;-80
2023/05/24 04:22:21;;;;;;;6.30;5.07;;;;;;;;;;5050599;28;20209;-79
2023/05/24 04:24:48;;;;;;;4.50;4.10;;;;;;;;;;5051035;28;20209;-79
2023/05/24 04:27:16;;;;;;;8.03;4.87;;;;;;;;;;5050918;28;20285;-78
2023/05/24 04:29:44;;;;;;;5.87;4.40;;;;;;;;;;5051855;28;20667;-78
2023/05/24 04:32:13;;;;;;;7.00;4.97;;;;;;;;;;5050737;28;20209;-79
2023/05/24 04:34:42;;;;;;;7.43;5.13;;;;;;;;;;5050856;28;20772;-78
2023/05/24 04:37:09;;;;;;;7.00;4.80;;;;;;;;;;5050633;28;20293;-77
2023/05/24 04:39:36;;;;;;;5.63;5.13;;;;;;;;;;5051387;28;20205;-79
2023/05/24 04:42:03;;;;;;;5.60;5.07;;;;;;;;;;5050949;28;20258;-78
2023/05/24 04:44:29;;;;;;;5.87;5.37;;;;;;;;;;5050786;28;20752;-79
2023/05/24 04:46:56;;;;;;;5.10;4.67;;;;;;;;;;5050191;28;20271;-79
2023/05/24 04:49:23;;;;;;;6.60;5.87;;;;;;;;;;5049492;28;20241;-78
2023/05/24 04:51:53;;;;;;;10.67;9.53;;;;;;;;;;5050683;28;20202;-79
2023/05/24 04:54:20;;;;;;;12.20;10.97;;;;;;;;;;5050603;28;20212;-79
2023/05/24 04:56:47;;;;;;;10.30;9.40;;;;;;;;;;5050119;28;20279;-78
2023/05/24 04:59:14;;;;;;;10.20;8.47;;;;;;;;;;5050614;28;20684;-79
2023/05/24 05:01:41;;;;;;;8.23;7.53;;;;;;;;;;5050190;28;20202;-79
2023/05/24 05:04:07;;;;;;;12.63;7.30;;;;;;;;;;5049750;28;20214;-79
2023/05/24 05:06:37;;;;;;;6.20;5.53;;;;;;;;;;5049163;28;20768;-78
2023/05/24 05:09:08;;;;;;;9.60;6.70;;;;;;;;;;5049541;28;20202;-79
2023/05/24 05:11:34;;;;;;;12.10;7.73;;;;;;;;;;5049392;28;20195;-79
2023/05/24 05:14:08;;;;;;;8.80;7.13;;;;;;;;;;5049616;28;20206;-79
2023/05/24 05:16:34;;;;;;;9.10;7.83;;;;;;;;;;5049753;28;20214;-78
2023/05/24 05:19:03;;;;;;;6.93;6.23;;;;;;;;;;5050445;28;20637;-79
2023/05/24 05:21:31;;;;;;;9.67;8.37;;;;;;;;;;5050322;28;20204;-79
2023/05/24 05:23:58;;;;;;;7.43;6.73;;;;;;;;;;5049625;28;20234;-79
2023/05/24 05:26:26;;;;;;;6.53;5.77;;;;;;;;;;5049824;28;20275;-79
2023/05/24 05:28:54;;;;;;;7.50;6.73;;;;;;;;;;5050412;28;20215;-79
2023/05/24 05:31:21;;;;;;;10.37;9.00;;;;;;;;;;5050262;28;20203;-79
2023/05/24 05:33:48;;;;;;;8.07;7.37;;;;;;;;;;5050046;28;20259;-78
2023/05/24 05:36:15;;;;;;;8.23;6.90;;;;;;;;;;5050082;28;20686;-79
2023/05/24 05:38:41;;;;;;;6.93;6.33;;;;;;;;;;5050082;28;20214;-78
2023/05/24 05:41:08;;;;;;;8.73;7.37;;;;;;;;;;5049781;28;20203;-80
2023/05/24 05:43:38;;;;;;;10.53;9.20;;;;;;;;;;5036763;28;20293;-79
2023/05/24 05:46:05;;;;;;;8.50;5.50;;;;;;;;;;5050011;28;20206;-79
2023/05/24 05:48:32;;;;;;;8.07;7.27;;;;;;;;;;5049776;28;20199;-80
2023/05/24 05:50:59;;;;;;;6.73;6.10;;;;;;;;;;5050042;28;20202;-80
2023/05/24 05:53:27;;;;;;;6.10;5.50;;;;;;;;;;5049636;28;20208;-79
2023/05/24 05:55:53;;;;;;;6.80;6.20;;;;;;;;;;5049723;28;20206;-79
2023/05/24 05:58:20;;;;;;;5.63;4.53;;;;;;;;;;5049511;28;20209;-80
2023/05/24 06:00:48;;;;;;;9.70;8.70;;;;;;;;;;5050169;28;20333;-80
2023/05/24 06:03:15;;;;;;;6.20;5.60;;;;;;;;;;5049929;28;20207;-80
2023/05/24 06:05:42;;;;;;;6.77;5.20;;;;;;;;;;5049437;28;20208;-80
2023/05/24 06:08:08;;;;;;;7.13;5.07;;;;;;;;;;5049488;28;20227;-80
2023/05/24 06:10:35;;;;;;;8.83;7.30;;;;;;;;;;5050236;28;20206;-80
2023/05/24 06:13:03;;;;;;;44.33;29.57;;;;;;;;;;5030343;28;20672;-76
2023/05/24 06:15:33;;;;;;;28.00;19.50;;;;;;;;;;5041870;28;20223;-77
2023/05/24 06:18:01;;;;;;;10.20;6.33;;;;;;;;;;5048808;28;20301;-76
2023/05/24 06:20:28;;;;;;;15.43;12.20;;;;;;;;;;5049370;28;20321;-77
2023/05/24 06:22:55;;;;;;;8.97;5.43;;;;;;;;;;5049001;28;20638;-76
2023/05/24 06:25:23;;;;;;;6.30;5.00;;;;;;;;;;5049358;28;20691;-77
2023/05/24 06:27:50;;;;;;;4.80;4.40;;;;;;;;;;5048360;28;20735;-77
2023/05/24 06:30:17;;;;;;;4.37;3.93;;;;;;;;;;5048177;28;20202;-77
2023/05/24 06:32:44;;;;;;;4.90;4.37;;;;;;;;;;5046720;28;20278;-77
2023/05/24 06:35:12;;;;;;;5.80;5.23;;;;;;;;;;5036738;28;20286;-76
2023/05/24 06:37:38;;;;;;;11.80;10.07;;;;;;;;;;5048265;28;20210;-77
2023/05/24 06:40:07;;;;;;;7.37;6.77;;;;;;;;;;5048840;28;20202;-76
2023/05/24 06:42:34;;;;;;;5.33;4.83;;;;;;;;;;5048386;28;20202;-74
2023/05/24 06:45:01;;;;;;;4.37;4.07;;;;;;;;;;5047547;28;20198;-76
2023/05/24 06:47:28;;;;;;;5.00;4.20;;;;;;;;;;5044054;28;20645;-75
2023/05/24 06:49:55;;;;;;;3.90;3.60;;;;;;;;;;5036429;28;20202;-75
2023/05/24 06:52:23;;;;;;;4.40;4.00;;;;;;;;;;5048633;28;20205;-74
2023/05/24 06:54:52;;;;;;;4.67;4.03;;;;;;;;;;5048587;28;20356;-75
2023/05/24 06:57:18;;;;;;;4.20;3.80;;;;;;;;;;5048089;28;20206;-78
2023/05/24 06:59:45;;;;;;;4.47;3.60;;;;;;;;;;5048912;28;20208;-77
2023/05/24 07:02:12;;;;;;;4.60;3.93;;;;;;;;;;5048485;28;20230;-77
2023/05/24 07:04:41;;;;;;;3.77;3.47;;;;;;;;;;5048166;28;20676;-77
2023/05/24 07:07:11;;;;;;;4.73;3.73;;;;;;;;;;5022351;28;20231;-77
2023/05/24 07:09:39;;;;;;;3.67;3.23;;;;;;;;;;5027575;28;20287;-77
2023/05/24 07:12:06;;;;;;;5.63;4.27;;;;;;;;;;5027685;28;20210;-77
2023/05/24 07:14:33;;;;;;;9.23;6.37;;;;;;;;;;5028017;28;20211;-77
2023/05/24 07:17:00;;;;;;;4.30;3.90;;;;;;;;;;5027013;28;20210;-76
2023/05/24 07:19:28;;;;;;;4.43;4.03;;;;;;;;;;5028203;28;20198;-77
2023/05/24 07:21:55;;;;;;;6.73;5.03;;;;;;;;;;5028109;28;20605;-76
2023/05/24 07:24:22;;;;;;;4.83;3.93;;;;;;;;;;5027965;28;20699;-77
2023/05/24 07:26:51;;;;;;;3.70;3.10;;;;;;;;;;5028331;28;20206;-76
2023/05/24 07:29:18;;;;;;;6.50;4.20;;;;;;;;;;5027830;28;20203;-77
2023/05/24 07:31:45;;;;;;;3.13;2.90;;;;;;;;;;5027960;28;20207;-77
2023/05/24 07:34:12;;;;;;;6.27;4.33;;;;;;;;;;5028596;28;20202;-76
2023/05/24 07:36:39;;;;;;;3.70;3.40;;;;;;;;;;5026883;28;20267;-77
2023/05/24 07:39:08;;;;;;;4.37;3.97;;;;;;;;;;5027996;28;20230;-76
2023/05/24 07:41:35;;;;;;;6.37;4.60;;;;;;;;;;5028486;28;20206;-77
2023/05/24 07:44:04;;;;;;;5.23;4.73;;;;;;;;;;5028190;28;20295;-76
2023/05/24 07:46:31;;;;;;;10.00;5.37;;;;;;;;;;5028087;28;20234;-78
2023/05/24 07:48:58;;;;;;;5.10;4.60;;;;;;;;;;5027626;28;20314;-78
2023/05/24 07:51:25;;;;;;;6.20;5.20;;;;;;;;;;5027904;28;20198;-77
2023/05/24 07:53:52;;;;;;;6.07;5.27;;;;;;;;;;5027727;28;20727;-76
2023/05/24 07:56:18;;;;;;;6.13;5.30;;;;;;;;;;5026366;28;20252;-77
2023/05/24 07:58:46;;;;;;;5.03;4.20;;;;;;;;;;5027636;28;20198;-77
2023/05/24 08:01:14;;;;;;;5.37;4.87;;;;;;;;;;5028125;28;20203;-77
2023/05/24 08:03:41;;;;;;;5.63;4.77;;;;;;;;;;5027558;28;20210;-77
2023/05/24 08:06:08;;;;;;;8.63;5.80;;;;;;;;;;5027814;28;20210;-77
2023/05/24 08:08:35;;;;;;;6.30;5.63;;;;;;;;;;5027441;28;20237;-77
2023/05/24 08:11:02;;;;;;;6.87;4.97;;;;;;;;;;5027810;28;20230;-76
2023/05/24 08:13:29;;;;;;;7.17;5.23;;;;;;;;;;5027810;28;20202;-77
2023/05/24 08:15:57;;;;;;;6.40;5.13;;;;;;;;;;5027270;28;20207;-77
2023/05/24 08:18:25;;;;;;;8.20;4.83;;;;;;;;;;5027624;28;20230;-77
2023/05/24 08:20:52;;;;;;;6.13;4.97;;;;;;;;;;5027208;28;20206;-78
2023/05/24 08:23:18;;;;;;;6.83;4.73;;;;;;;;;;5027309;28;20206;-78
2023/05/24 08:25:45;;;;;;;7.33;4.57;;;;;;;;;;5027432;28;20203;-79
2023/05/24 08:28:15;;;;;;;5.50;4.23;;;;;;;;;;5027540;28;20233;-78
2023/05/24 08:30:42;;;;;;;5.93;4.43;;;;;;;;;;5027789;28;20289;-78
2023/05/24 08:33:09;;;;;;;6.67;4.97;;;;;;;;;;5027664;28;20210;-77
2023/05/24 08:35:37;;;;;;;5.37;4.53;;;;;;;;;;5027131;28;20206;-78
2023/05/24 08:38:03;;;;;;;8.57;4.57;;;;;;;;;;5027755;28;20203;-77
2023/05/24 08:40:32;;;;;;;5.27;4.87;;;;;;;;;;5027521;28;20199;-77
2023/05/24 08:43:01;;;;;;;6.07;5.50;;;;;;;;;;5027281;28;20210;-77
2023/05/24 08:45:30;;;;;;;4.93;4.50;;;;;;;;;;5027249;28;20209;-77
2023/05/24 08:47:57;;;;;;;4.97;4.43;;;;;;;;;;5046068;28;20261;-77
2023/05/24 08:50:24;;;;;;;5.17;4.30;;;;;;;;;;5047392;28;20592;-77
2023/05/24 08:52:53;;;;;;;5.07;4.50;;;;;;;;;;5033166;28;20684;-78
2023/05/24 08:55:20;;;;;;;9.83;4.70;;;;;;;;;;5046765;28;20205;-78
2023/05/24 08:57:47;;;;;;;5.47;4.97;;;;;;;;;;5020819;28;20250;-78
2023/05/24 09:00:15;;;;;;;13.17;6.97;;;;;;;;;;5033884;28;20236;-77
2023/05/24 09:02:43;;;;;;;10.37;6.63;;;;;;;;;;5021088;28;20206;-78
2023/05/24 09:05:11;;;;;;;5.40;4.27;;;;;;;;;;5047052;28;20242;-77
2023/05/24 09:07:38;;;;;;;4.83;4.43;;;;;;;;;;5048239;28;20226;-77
2023/05/24 09:10:08;;;;;;;5.17;4.60;;;;;;;;;;5050070;28;20228;-77
2023/05/24 09:12:37;;;;;;;4.50;4.00;;;;;;;;;;5049688;28;20206;-78
2023/05/24 09:15:04;;;;;;;5.50;4.50;;;;;;;;;;5050119;28;20748;-78
2023/05/24 09:17:31;;;;;;;7.13;6.17;;;;;;;;;;5050316;28;20210;-78
2023/05/24 09:19:59;;;;;;;5.53;5.00;;;;;;;;;;5050093;28;20643;-77
2023/05/24 09:22:29;;;;;;;6.60;5.93;;;;;;;;;;5050254;28;20202;-77
2023/05/24 09:24:58;;;;;;;5.03;4.63;;;;;;;;;;5047350;28;20202;-78
2023/05/24 09:27:26;;;;;;;4.67;4.13;;;;;;;;;;5028078;28;20294;-78
2023/05/24 09:29:53;;;;;;;5.70;5.20;;;;;;;;;;5037692;28;20637;-78
2023/05/24 09:32:23;;;;;;;4.17;3.87;;;;;;;;;;5049705;28;20202;-78
2023/05/24 09:34:52;;;;;;;6.47;5.60;;;;;;;;;;5022556;28;20712;-78
2023/05/24 09:37:20;;;;;;;4.73;4.17;;;;;;;;;;5024896;28;20600;-78
2023/05/24 09:39:47;;;;;;;4.13;3.83;;;;;;;;;;5033362;28;20210;-78
2023/05/24 09:42:16;;;;;;;4.27;3.80;;;;;;;;;;5049192;28;20208;-78
2023/05/24 09:44:46;;;;;;;7.77;4.63;;;;;;;;;;5027939;28;20206;-78
2023/05/24 09:47:12;;;;;;;5.33;3.90;;;;;;;;;;5026244;28;20234;-78
2023/05/24 09:49:39;;;;;;;3.93;3.60;;;;;;;;;;5031255;28;20231;-78
2023/05/24 09:52:06;;;;;;;6.30;3.03;;;;;;;;;;5045817;28;20288;-78
2023/05/24 09:54:33;;;;;;;5.17;3.40;;;;;;;;;;5049611;28;20210;-78
2023/05/24 09:57:03;;;;;;;3.93;3.50;;;;;;;;;;5049114;28;20688;-78
2023/05/24 09:59:32;;;;;;;3.73;3.43;;;;;;;;;;5049883;28;20205;-78
2023/05/24 10:02:09;;;;;;;4.53;4.13;;;;;;;;;;5049565;28;20206;-78
2023/05/24 10:04:36;;;;;;;5.53;3.93;;;;;;;;;;5047984;28;20237;-78
2023/05/24 10:07:04;;;;;;;8.27;4.63;;;;;;;;;;5036951;28;20221;-78
2023/05/24 10:09:32;;;;;;;10.60;6.37;;;;;;;;;;5049610;28;20222;-78
2023/05/24 10:12:03;;;;;;;10.50;8.70;;;;;;;;;;5049671;28;20206;-78
2023/05/24 10:14:32;;;;;;;5.63;4.00;;;;;;;;;;5049531;28;20233;-78
2023/05/24 10:16:58;;;;;;;7.37;3.90;;;;;;;;;;5048915;28;20676;-78
2023/05/24 10:19:27;;;;;;;5.40;4.30;;;;;;;;;;5047845;28;20207;-78
2023/05/24 10:21:54;;;;;;;5.83;4.93;;;;;;;;;;5049541;28;20210;-78
2023/05/24 10:24:24;;;;;;;5.60;5.10;;;;;;;;;;5049017;28;20262;-78
2023/05/24 10:26:51;;;;;;;9.87;7.77;;;;;;;;;;5049002;28;20210;-78
2023/05/24 10:29:27;;;;;;;6.43;4.53;;;;;;;;;;5049076;28;20245;-78
2023/05/24 10:31:54;;;;;;;4.80;3.93;;;;;;;;;;5049118;28;20651;-78
2023/05/24 10:34:22;;;;;;;6.70;4.43;;;;;;;;;;5043865;28;20255;-78
2023/05/24 10:36:51;;;;;;;5.50;4.60;;;;;;;;;;5041861;28;20617;-77
2023/05/24 10:39:21;;;;;;;7.47;4.93;;;;;;;;;;5044451;28;20745;-77
2023/05/24 10:41:47;;;;;;;4.90;4.40;;;;;;;;;;5042720;28;20285;-78
2023/05/24 10:44:19;;;;;;;4.40;4.00;;;;;;;;;;5049070;28;20349;-77
2023/05/24 10:47:08;;;;;;;6.60;4.63;;;;;;;;;;5037186;28;20713;-76
2023/05/24 10:49:35;;;;;;;5.83;3.67;;;;;;;;;;5046516;28;20247;-76
2023/05/24 10:52:07;;;;;;;5.63;4.07;;;;;;;;;;5048576;28;20209;-77
2023/05/24 10:54:34;;;;;;;6.60;4.27;;;;;;;;;;5048296;28;20198;-77
2023/05/24 10:57:03;;;;;;;3.97;3.67;;;;;;;;;;5048282;28;20290;-77
2023/05/24 10:59:36;;;;;;;5.27;4.87;;;;;;;;;;5048307;28;20687;-77
2023/05/24 11:02:05;;;;;;;6.97;3.90;;;;;;;;;;5047902;28;20297;-77
2023/05/24 11:04:37;;;;;;;5.83;4.30;;;;;;;;;;5048554;28;20234;-77
2023/05/24 11:07:08;;;;;;;4.47;4.07;;;;;;;;;;5047815;28;20263;-76
2023/05/24 11:09:35;;;;;;;5.43;4.00;;;;;;;;;;5048440;28;20224;-76
2023/05/24 11:12:06;;;;;;;5.10;3.67;;;;;;;;;;5047974;28;20209;-76
2023/05/24 11:14:34;;;;;;;5.77;4.23;;;;;;;;;;5045249;28;20323;-77
2023/05/24 11:17:01;;;;;;;4.77;4.37;;;;;;;;;;5038080;28;20741;-77
2023/05/24 11:19:34;;;;;;;4.60;4.10;;;;;;;;;;5047693;28;20671;-77
2023/05/24 11:22:02;;;;;;;4.47;4.07;;;;;;;;;;5047936;28;20251;-76
2023/05/24 11:24:31;;;;;;;5.53;5.00;;;;;;;;;;5047791;28;20190;-77
2023/05/24 11:26:58;;;;;;;9.37;5.33;;;;;;;;;;5047895;28;20254;-78
2023/05/24 11:29:24;;;;;;;4.83;4.33;;;;;;;;;;5034151;28;20221;-79
2023/05/24 11:31:52;;;;;;;5.03;4.17;;;;;;;;;;5048235;28;20258;-84
2023/05/24 11:34:21;;;;;;;4.20;3.80;;;;;;;;;;5048544;28;20202;-78
2023/05/24 11:36:48;;;;;;;4.90;4.50;;;;;;;;;;5047298;28;20702;-78
2023/05/24 11:39:15;;;;;;;5.53;4.27;;;;;;;;;;5041930;28;20207;-78
2023/05/24 11:41:44;;;;;;;5.50;4.47;;;;;;;;;;5041382;28;20316;-79
2023/05/24 11:44:12;;;;;;;5.77;4.33;;;;;;;;;;5021568;28;20200;-76
2023/05/24 11:46:40;;;;;;;4.57;4.17;;;;;;;;;;5047338;28;20248;-78
2023/05/24 11:49:07;;;;;;;5.40;4.07;;;;;;;;;;5021826;28;20230;-76
2023/05/24 11:51:34;;;;;;;5.07;4.57;;;;;;;;;;5047784;28;20229;-77
2023/05/24 11:54:01;;;;;;;4.53;4.10;;;;;;;;;;5047628;28;20209;-77
2023/05/24 11:56:30;;;;;;;6.70;4.60;;;;;;;;;;5046910;28;20217;-77
2023/05/24 11:59:14;;;;;;;3.80;3.47;;;;;;;;;;5047908;28;20220;-77
2023/05/24 12:01:41;;;;;;;6.90;3.80;;;;;;;;;;5047302;28;20314;-77
2023/05/24 12:04:08;;;;;;;5.23;4.47;;;;;;;;;;5047900;28;20672;-77
2023/05/24 12:06:37;;;;;;;4.50;4.13;;;;;;;;;;5047333;28;20676;-76
2023/05/24 12:09:16;;;;;;;4.33;3.93;;;;;;;;;;5047107;28;20236;-76
2023/05/24 12:11:45;;;;;;;4.37;4.07;;;;;;;;;;5041339;28;20735;-77
2023/05/24 12:14:14;;;;;;;4.40;3.90;;;;;;;;;;5040875;28;20202;-77
2023/05/24 12:16:42;;;;;;;7.20;4.50;;;;;;;;;;5047631;28;20262;-76
2023/05/24 12:19:17;;;;;;;7.80;3.60;;;;;;;;;;5046644;28;20202;-76
2023/05/24 12:21:45;;;;;;;4.73;3.87;;;;;;;;;;5047681;28;20292;-76
2023/05/24 12:24:12;;;;;;;5.40;3.87;;;;;;;;;;5047481;28;20617;-76
2023/05/24 12:26:42;;;;;;;5.73;4.20;;;;;;;;;;5047510;28;20214;-76
2023/05/24 12:29:10;;;;;;;4.30;3.83;;;;;;;;;;5046931;27;20663;-77
2023/05/24 12:31:40;;;;;;;4.43;4.03;;;;;;;;;;5047063;28;20198;-77
2023/05/24 12:34:07;;;;;;;5.00;4.50;;;;;;;;;;5047140;28;20198;-77
2023/05/24 12:36:35;;;;;;;4.57;3.80;;;;;;;;;;5047353;28;20209;-77
2023/05/24 12:39:16;;;;;;;4.20;3.67;;;;;;;;;;5038039;28;20310;-76
2023/05/24 12:41:43;;;;;;;4.03;3.73;;;;;;;;;;5021266;28;20724;-76
2023/05/24 12:44:10;;;;;;;5.50;3.10;;;;;;;;;;5024835;28;20201;-77
2023/05/24 12:46:38;;;;;;;4.00;3.63;;;;;;;;;;5050398;28;20225;-77
2023/05/24 12:49:05;;;;;;;4.37;3.40;;;;;;;;;;5050306;28;20233;-77
2023/05/24 12:51:32;;;;;;;3.87;3.20;;;;;;;;;;5042036;28;20646;-76
2023/05/24 12:54:00;;;;;;;3.33;3.10;;;;;;;;;;5032302;28;20213;-76
2023/05/24 12:56:30;;;;;;;3.43;2.83;;;;;;;;;;5050070;28;20255;-78
2023/05/24 12:58:57;;;;;;;6.00;3.17;;;;;;;;;;5049983;28;20206;-76
2023/05/24 13:01:24;;;;;;;4.47;3.97;;;;;;;;;;5049949;28;20213;-75
2023/05/24 13:03:53;;;;;;;5.80;3.87;;;;;;;;;;5050639;28;20244;-75
2023/05/24 13:06:20;;;;;;;3.33;2.93;;;;;;;;;;5049944;28;20240;-75
2023/05/24 13:08:47;;;;;;;2.90;2.23;;;;;;;;;;5048232;28;20253;-75
2023/05/24 13:11:15;;;;;;;4.40;3.03;;;;;;;;;;5050202;28;20206;-75
2023/05/24 13:13:43;;;;;;;2.70;2.03;;;;;;;;;;5049572;28;20235;-75
2023/05/24 13:16:10;;;;;;;2.53;2.23;;;;;;;;;;5049577;28;20203;-75
2023/05/24 13:18:37;;;;;;;2.20;2.10;;;;;;;;;;5038828;28;20202;-78
2023/05/24 13:21:06;;;;;;;2.40;2.20;;;;;;;;;;5046366;28;20202;-78
2023/05/24 13:23:34;;;;;;;4.00;2.03;;;;;;;;;;5049254;28;20202;-77
2023/05/24 13:26:01;;;;;;;2.30;2.10;;;;;;;;;;5050322;28;20202;-77
2023/05/24 13:28:30;;;;;;;2.30;2.10;;;;;;;;;;5049214;27;20209;-76
2023/05/24 13:30:57;;;;;;;1.90;1.80;;;;;;;;;;5044618;28;20198;-75
2023/05/24 13:33:25;;;;;;;2.80;1.73;;;;;;;;;;5040672;28;20576;-76
2023/05/24 13:35:52;;;;;;;2.50;2.07;;;;;;;;;;5049099;28;20222;-77
2023/05/24 13:38:22;;;;;;;4.80;2.27;;;;;;;;;;5025421;28;20202;-77
2023/05/24 13:40:56;;;;;;;2.47;2.27;;;;;;;;;;5049642;28;20210;-76
2023/05/24 13:43:23;;;;;;;2.60;2.40;;;;;;;;;;5049396;28;20249;-76
2023/05/24 13:45:51;;;;;;;3.70;2.93;;;;;;;;;;5049747;28;20198;-76
2023/05/24 13:48:18;;;;;;;5.00;3.43;;;;;;;;;;5028820;28;20226;-76
2023/05/24 13:50:46;;;;;;;4.73;3.17;;;;;;;;;;5015491;28;20231;-76
2023/05/24 13:53:14;;;;;;;5.00;2.87;;;;;;;;;;5016532;28;20208;-76
2023/05/24 13:55:43;;;;;;;5.00;4.07;;;;;;;;;;5021722;28;20292;-76
2023/05/24 13:58:09;;;;;;;13.03;8.00;;;;;;;;;;5047200;28;20676;-76
2023/05/24 14:00:36;;;;;;;9.40;5.63;;;;;;;;;;5032985;27;20704;-76
2023/05/24 14:03:05;;;;;;;5.47;3.80;;;;;;;;;;5037110;28;20202;-76
2023/05/24 14:05:32;;;;;;;5.80;4.70;;;;;;;;;;5048744;28;20210;-76
2023/05/24 14:08:05;;;;;;;4.60;3.10;;;;;;;;;;5049546;28;20206;-77
2023/05/24 14:10:32;;;;;;;3.33;3.10;;;;;;;;;;5049333;28;20244;-77
2023/05/24 14:13:00;;;;;;;3.13;2.40;;;;;;;;;;5037714;28;20203;-76
2023/05/24 14:15:28;;;;;;;3.40;3.07;;;;;;;;;;5046567;28;20741;-76
2023/05/24 14:17:56;;;;;;;4.30;2.73;;;;;;;;;;5048870;28;20202;-76
2023/05/24 14:20:22;;;;;;;4.23;2.90;;;;;;;;;;5049042;28;20243;-76
2023/05/24 14:22:50;;;;;;;2.23;2.13;;;;;;;;;;5048924;28;20199;-76
2023/05/24 14:25:17;;;;;;;2.40;2.20;;;;;;;;;;5031666;28;20217;-76
2023/05/24 14:27:45;;;;;;;6.53;4.33;;;;;;;;;;5048478;28;20201;-76
2023/05/24 14:30:14;;;;;;;3.87;3.47;;;;;;;;;;5044853;28;20272;-76
2023/05/24 14:32:42;;;;;;;3.83;2.47;;;;;;;;;;5046908;28;20206;-76
2023/05/24 14:35:09;;;;;;;2.30;2.10;;;;;;;;;;5048840;28;20232;-76
2023/05/24 14:37:36;;;;;;;2.80;1.93;;;;;;;;;;5031443;28;20206;-77
2023/05/24 14:40:04;;;;;;;4.67;2.57;;;;;;;;;;5034604;27;20256;-77
2023/05/24 14:42:31;;;;;;;2.77;2.57;;;;;;;;;;5022707;28;20646;-77
2023/05/24 14:44:58;;;;;;;3.10;2.13;;;;;;;;;;5047593;28;20695;-77
2023/05/24 14:47:27;;;;;;;2.83;2.50;;;;;;;;;;5048921;28;20279;-76